Pagrindinis puslapis
METAR-TAF:

METAR-TAF

Oro uostai :

Šenjangas, Kinija

platuma: 41-48N, ilguma: 123-24E, Aukštis: 35 m

Dabartinis oras

Ataskaita buvo paskelbta 40 minutes, ne 13:00 UTC
Vėjas 10 kt iš Pietų
Temperatūra 7°C
Drėgmė 70%
Slėgis 1025 hPa
Matomumas 10 km arba daugiau
nėra debesų žemiau 1500 m ir nėra kamuolinių lietaus debesų

METAR: ZYTX 211300Z 17005MPS CAVOK 07/02 Q1025 NOSIG

Laikas: 21:40 (13:40 UTC)

Prognozė

Ataskaita buvo paskelbta 4 valandos ir 54 minutes, ne 08:46 UTC
Prognozė galioja nuo 21 metu 12 UTC su 22 metu 12 UTC
Vėjas 10 kt iš Pietų
Matomumas: 6000 m
Su prošvaistėmis ne aukštis 4000 ft

TAF: ZYTX 210846Z 2112/2212 17005MPS 6000 BKN040 TX12/2206Z TN04/2118Z

Orai ataskaitas ir orų prognozės (METAR, TAF).

turimą stotys yra geltonos ir raudonos taškus žemėlapyje.

Perkelti pele per norėdami pamatyti stoties vardą.

Tada spustelėkite, norėdami matyti oro stebėjimo ir prognozės.

Norėdami pakeisti žemėlapį: spustelėkite ant žalios mygtukų su juodo kryžiaus žemyn,; žalią mygtuką su brūkšneliu, jei norite nutolinti; arba žalių rodyklių gretimoms žemėlapius.


METAR-TAF: